sensor_id;sensor_type;location;lat;lon;timestamp;temperature;humidity
7576;DHT22;3829;50.798;4.358;2024-02-23T00:01:27;5.60;99.90
7576;DHT22;3829;50.798;4.358;2024-02-23T00:03:53;5.70;99.90
7576;DHT22;3829;50.798;4.358;2024-02-23T00:06:20;5.60;99.90
7576;DHT22;3829;50.798;4.358;2024-02-23T00:08:53;5.50;99.90
7576;DHT22;3829;50.798;4.358;2024-02-23T00:11:20;5.70;99.90
7576;DHT22;3829;50.798;4.358;2024-02-23T00:13:46;5.70;99.90
7576;DHT22;3829;50.798;4.358;2024-02-23T00:16:12;5.70;99.90
7576;DHT22;3829;50.798;4.358;2024-02-23T00:18:38;5.60;99.90
7576;DHT22;3829;50.798;4.358;2024-02-23T00:21:04;5.60;99.90
7576;DHT22;3829;50.798;4.358;2024-02-23T00:23:30;5.50;99.90
7576;DHT22;3829;50.798;4.358;2024-02-23T00:25:55;5.50;99.90
7576;DHT22;3829;50.798;4.358;2024-02-23T00:28:21;5.50;99.90
7576;DHT22;3829;50.798;4.358;2024-02-23T00:30:47;5.40;99.90
7576;DHT22;3829;50.798;4.358;2024-02-23T00:33:13;5.40;99.90
7576;DHT22;3829;50.798;4.358;2024-02-23T00:35:38;5.50;99.90
7576;DHT22;3829;50.798;4.358;2024-02-23T00:38:04;5.60;99.90
7576;DHT22;3829;50.798;4.358;2024-02-23T00:40:30;5.60;99.90
7576;DHT22;3829;50.798;4.358;2024-02-23T00:42:55;5.60;99.90
7576;DHT22;3829;50.798;4.358;2024-02-23T00:45:21;5.60;99.90
7576;DHT22;3829;50.798;4.358;2024-02-23T00:47:47;5.60;99.90
7576;DHT22;3829;50.798;4.358;2024-02-23T00:50:14;5.60;99.90
7576;DHT22;3829;50.798;4.358;2024-02-23T00:52:39;5.60;99.90
7576;DHT22;3829;50.798;4.358;2024-02-23T00:55:06;5.60;99.90
7576;DHT22;3829;50.798;4.358;2024-02-23T00:57:35;5.60;99.90
7576;DHT22;3829;50.798;4.358;2024-02-23T01:00:01;5.60;99.90
7576;DHT22;3829;50.798;4.358;2024-02-23T01:02:30;5.60;99.90
7576;DHT22;3829;50.798;4.358;2024-02-23T01:04:56;5.50;99.90
7576;DHT22;3829;50.798;4.358;2024-02-23T01:07:24;5.40;99.90
7576;DHT22;3829;50.798;4.358;2024-02-23T01:09:50;5.50;99.90
7576;DHT22;3829;50.798;4.358;2024-02-23T01:12:16;5.50;99.90
7576;DHT22;3829;50.798;4.358;2024-02-23T01:14:42;5.50;99.90
7576;DHT22;3829;50.798;4.358;2024-02-23T01:17:07;5.50;99.90
7576;DHT22;3829;50.798;4.358;2024-02-23T01:19:33;5.50;99.90
7576;DHT22;3829;50.798;4.358;2024-02-23T01:21:59;5.50;99.90
7576;DHT22;3829;50.798;4.358;2024-02-23T01:24:26;5.40;99.90
7576;DHT22;3829;50.798;4.358;2024-02-23T01:26:53;5.30;99.90
7576;DHT22;3829;50.798;4.358;2024-02-23T01:29:20;5.20;99.90
7576;DHT22;3829;50.798;4.358;2024-02-23T01:31:46;5.20;99.90
7576;DHT22;3829;50.798;4.358;2024-02-23T01:34:11;5.30;99.90
7576;DHT22;3829;50.798;4.358;2024-02-23T01:36:37;5.30;99.90
7576;DHT22;3829;50.798;4.358;2024-02-23T01:39:04;5.30;99.90
7576;DHT22;3829;50.798;4.358;2024-02-23T01:41:30;5.30;99.90
7576;DHT22;3829;50.798;4.358;2024-02-23T01:43:55;5.20;99.90
7576;DHT22;3829;50.798;4.358;2024-02-23T01:46:21;5.20;99.90
7576;DHT22;3829;50.798;4.358;2024-02-23T01:48:47;5.30;99.90
7576;DHT22;3829;50.798;4.358;2024-02-23T01:51:13;5.40;99.90
7576;DHT22;3829;50.798;4.358;2024-02-23T01:53:39;5.50;99.90
7576;DHT22;3829;50.798;4.358;2024-02-23T01:56:06;5.60;99.90
7576;DHT22;3829;50.798;4.358;2024-02-23T01:58:33;5.50;99.90
7576;DHT22;3829;50.798;4.358;2024-02-23T02:01:00;5.60;99.90
7576;DHT22;3829;50.798;4.358;2024-02-23T02:03:26;5.70;99.90
7576;DHT22;3829;50.798;4.358;2024-02-23T02:05:53;5.80;99.90
7576;DHT22;3829;50.798;4.358;2024-02-23T02:08:19;5.70;99.90
7576;DHT22;3829;50.798;4.358;2024-02-23T02:10:45;5.70;99.90
7576;DHT22;3829;50.798;4.358;2024-02-23T02:13:12;5.80;99.90
7576;DHT22;3829;50.798;4.358;2024-02-23T02:15:38;5.90;99.90
7576;DHT22;3829;50.798;4.358;2024-02-23T02:18:04;5.90;99.90
7576;DHT22;3829;50.798;4.358;2024-02-23T02:20:32;5.90;99.90
7576;DHT22;3829;50.798;4.358;2024-02-23T02:22:58;5.90;99.90
7576;DHT22;3829;50.798;4.358;2024-02-23T02:25:24;5.90;99.90
7576;DHT22;3829;50.798;4.358;2024-02-23T02:27:50;5.90;99.90
7576;DHT22;3829;50.798;4.358;2024-02-23T02:30:15;6.00;99.90
7576;DHT22;3829;50.798;4.358;2024-02-23T02:32:41;6.10;99.90
7576;DHT22;3829;50.798;4.358;2024-02-23T02:35:07;6.10;99.90
7576;DHT22;3829;50.798;4.358;2024-02-23T02:37:33;6.10;99.90
7576;DHT22;3829;50.798;4.358;2024-02-23T02:39:59;6.00;99.90
7576;DHT22;3829;50.798;4.358;2024-02-23T02:42:24;6.10;99.90
7576;DHT22;3829;50.798;4.358;2024-02-23T02:44:50;6.10;99.90
7576;DHT22;3829;50.798;4.358;2024-02-23T02:47:15;5.90;99.90
7576;DHT22;3829;50.798;4.358;2024-02-23T02:49:41;6.10;99.90
7576;DHT22;3829;50.798;4.358;2024-02-23T02:52:07;6.10;99.90
7576;DHT22;3829;50.798;4.358;2024-02-23T02:54:34;6.10;99.90
7576;DHT22;3829;50.798;4.358;2024-02-23T02:56:59;6.20;99.90
7576;DHT22;3829;50.798;4.358;2024-02-23T02:59:26;6.20;99.90
7576;DHT22;3829;50.798;4.358;2024-02-23T03:01:52;6.10;99.90
7576;DHT22;3829;50.798;4.358;2024-02-23T03:04:17;6.10;99.90
7576;DHT22;3829;50.798;4.358;2024-02-23T03:06:45;6.10;99.90
7576;DHT22;3829;50.798;4.358;2024-02-23T03:09:12;6.00;99.90
7576;DHT22;3829;50.798;4.358;2024-02-23T03:11:37;6.00;99.90
7576;DHT22;3829;50.798;4.358;2024-02-23T03:14:03;6.00;99.90
7576;DHT22;3829;50.798;4.358;2024-02-23T03:16:29;6.00;99.90
7576;DHT22;3829;50.798;4.358;2024-02-23T03:18:56;6.10;99.90
7576;DHT22;3829;50.798;4.358;2024-02-23T03:21:22;6.00;99.90
7576;DHT22;3829;50.798;4.358;2024-02-23T03:23:47;6.00;99.90
7576;DHT22;3829;50.798;4.358;2024-02-23T03:26:13;5.90;99.90
7576;DHT22;3829;50.798;4.358;2024-02-23T03:28:42;5.90;99.90
7576;DHT22;3829;50.798;4.358;2024-02-23T03:31:08;5.90;99.90
7576;DHT22;3829;50.798;4.358;2024-02-23T03:33:34;5.90;99.90
7576;DHT22;3829;50.798;4.358;2024-02-23T03:35:59;5.90;99.90
7576;DHT22;3829;50.798;4.358;2024-02-23T03:38:25;5.90;99.90
7576;DHT22;3829;50.798;4.358;2024-02-23T03:40:51;5.90;99.90
7576;DHT22;3829;50.798;4.358;2024-02-23T03:43:16;5.90;99.90
7576;DHT22;3829;50.798;4.358;2024-02-23T03:45:42;6.00;99.90
7576;DHT22;3829;50.798;4.358;2024-02-23T03:48:07;6.10;99.90
7576;DHT22;3829;50.798;4.358;2024-02-23T03:50:33;6.10;99.90
7576;DHT22;3829;50.798;4.358;2024-02-23T03:52:59;6.20;99.90
7576;DHT22;3829;50.798;4.358;2024-02-23T03:55:24;6.20;99.90
7576;DHT22;3829;50.798;4.358;2024-02-23T03:57:50;6.20;99.90
7576;DHT22;3829;50.798;4.358;2024-02-23T04:00:16;6.10;99.90
7576;DHT22;3829;50.798;4.358;2024-02-23T04:02:42;6.20;99.90
7576;DHT22;3829;50.798;4.358;2024-02-23T04:05:08;6.20;99.90
7576;DHT22;3829;50.798;4.358;2024-02-23T04:07:33;6.20;99.90
7576;DHT22;3829;50.798;4.358;2024-02-23T04:09:59;6.20;99.90
7576;DHT22;3829;50.798;4.358;2024-02-23T04:12:24;6.20;99.90
7576;DHT22;3829;50.798;4.358;2024-02-23T04:14:50;6.20;99.90
7576;DHT22;3829;50.798;4.358;2024-02-23T04:17:16;6.20;99.90
7576;DHT22;3829;50.798;4.358;2024-02-23T04:19:43;6.20;99.90
7576;DHT22;3829;50.798;4.358;2024-02-23T04:22:09;6.10;99.90
7576;DHT22;3829;50.798;4.358;2024-02-23T04:24:38;6.20;99.90
7576;DHT22;3829;50.798;4.358;2024-02-23T04:27:04;6.20;99.90
7576;DHT22;3829;50.798;4.358;2024-02-23T04:29:30;6.10;99.90
7576;DHT22;3829;50.798;4.358;2024-02-23T04:31:56;6.10;99.90
7576;DHT22;3829;50.798;4.358;2024-02-23T04:34:21;6.10;99.90
7576;DHT22;3829;50.798;4.358;2024-02-23T04:36:47;6.10;99.90
7576;DHT22;3829;50.798;4.358;2024-02-23T04:39:12;6.20;99.90
7576;DHT22;3829;50.798;4.358;2024-02-23T04:41:38;6.10;99.90
7576;DHT22;3829;50.798;4.358;2024-02-23T04:44:04;6.20;99.90
7576;DHT22;3829;50.798;4.358;2024-02-23T04:46:30;6.20;99.90
7576;DHT22;3829;50.798;4.358;2024-02-23T04:48:56;6.30;99.90
7576;DHT22;3829;50.798;4.358;2024-02-23T04:51:22;6.30;99.90
7576;DHT22;3829;50.798;4.358;2024-02-23T04:53:49;6.30;99.90
7576;DHT22;3829;50.798;4.358;2024-02-23T04:56:15;6.30;99.90
7576;DHT22;3829;50.798;4.358;2024-02-23T04:58:40;6.30;99.90
7576;DHT22;3829;50.798;4.358;2024-02-23T05:01:08;6.30;99.90
7576;DHT22;3829;50.798;4.358;2024-02-23T05:03:34;6.30;99.90
7576;DHT22;3829;50.798;4.358;2024-02-23T05:05:59;6.30;99.90
7576;DHT22;3829;50.798;4.358;2024-02-23T05:08:25;6.30;99.90
7576;DHT22;3829;50.798;4.358;2024-02-23T05:10:53;6.20;99.90
7576;DHT22;3829;50.798;4.358;2024-02-23T05:13:19;6.20;99.90
7576;DHT22;3829;50.798;4.358;2024-02-23T05:15:44;6.10;99.90
7576;DHT22;3829;50.798;4.358;2024-02-23T05:18:10;6.10;99.90
7576;DHT22;3829;50.798;4.358;2024-02-23T05:20:35;6.00;99.90
7576;DHT22;3829;50.798;4.358;2024-02-23T05:23:01;6.00;99.90
7576;DHT22;3829;50.798;4.358;2024-02-23T05:25:27;6.00;99.90
7576;DHT22;3829;50.798;4.358;2024-02-23T05:27:53;6.10;99.90
7576;DHT22;3829;50.798;4.358;2024-02-23T05:30:19;6.10;99.90
7576;DHT22;3829;50.798;4.358;2024-02-23T05:32:44;6.10;99.90
7576;DHT22;3829;50.798;4.358;2024-02-23T05:35:10;6.00;99.90
7576;DHT22;3829;50.798;4.358;2024-02-23T05:37:36;6.10;99.90
7576;DHT22;3829;50.798;4.358;2024-02-23T05:40:03;6.00;99.90
7576;DHT22;3829;50.798;4.358;2024-02-23T05:42:36;6.10;99.90
7576;DHT22;3829;50.798;4.358;2024-02-23T05:45:02;6.20;99.90
7576;DHT22;3829;50.798;4.358;2024-02-23T05:47:30;6.10;99.90
7576;DHT22;3829;50.798;4.358;2024-02-23T05:49:56;6.10;99.90
7576;DHT22;3829;50.798;4.358;2024-02-23T05:52:21;6.00;99.90
7576;DHT22;3829;50.798;4.358;2024-02-23T05:54:47;6.10;99.90
7576;DHT22;3829;50.798;4.358;2024-02-23T05:57:13;6.00;99.90
7576;DHT22;3829;50.798;4.358;2024-02-23T05:59:38;6.10;99.90
7576;DHT22;3829;50.798;4.358;2024-02-23T06:02:04;6.00;99.90
7576;DHT22;3829;50.798;4.358;2024-02-23T06:04:30;6.00;99.90
7576;DHT22;3829;50.798;4.358;2024-02-23T06:06:56;5.90;99.90
7576;DHT22;3829;50.798;4.358;2024-02-23T06:09:21;5.90;99.90
7576;DHT22;3829;50.798;4.358;2024-02-23T06:11:47;5.90;99.90
7576;DHT22;3829;50.798;4.358;2024-02-23T06:14:13;6.00;99.90
7576;DHT22;3829;50.798;4.358;2024-02-23T06:16:39;6.00;99.90
7576;DHT22;3829;50.798;4.358;2024-02-23T06:19:06;5.90;99.90
7576;DHT22;3829;50.798;4.358;2024-02-23T06:21:31;5.80;99.90
7576;DHT22;3829;50.798;4.358;2024-02-23T06:23:58;5.90;99.90
7576;DHT22;3829;50.798;4.358;2024-02-23T06:26:24;5.90;99.90
7576;DHT22;3829;50.798;4.358;2024-02-23T06:28:49;5.90;99.90
7576;DHT22;3829;50.798;4.358;2024-02-23T06:31:15;5.90;99.90
7576;DHT22;3829;50.798;4.358;2024-02-23T06:33:40;6.00;99.90
7576;DHT22;3829;50.798;4.358;2024-02-23T06:36:07;6.00;99.90
7576;DHT22;3829;50.798;4.358;2024-02-23T06:38:33;6.10;99.90
7576;DHT22;3829;50.798;4.358;2024-02-23T06:40:59;6.20;99.90
7576;DHT22;3829;50.798;4.358;2024-02-23T06:43:25;6.20;99.90
7576;DHT22;3829;50.798;4.358;2024-02-23T06:45:51;6.20;99.90
7576;DHT22;3829;50.798;4.358;2024-02-23T06:48:17;6.30;99.90
7576;DHT22;3829;50.798;4.358;2024-02-23T06:50:42;6.30;99.90
7576;DHT22;3829;50.798;4.358;2024-02-23T06:53:08;6.30;99.90
7576;DHT22;3829;50.798;4.358;2024-02-23T06:55:35;6.30;99.90
7576;DHT22;3829;50.798;4.358;2024-02-23T06:58:01;6.30;99.90
7576;DHT22;3829;50.798;4.358;2024-02-23T07:00:27;6.40;99.90
7576;DHT22;3829;50.798;4.358;2024-02-23T07:02:52;6.40;99.90
7576;DHT22;3829;50.798;4.358;2024-02-23T07:05:18;6.40;99.90
7576;DHT22;3829;50.798;4.358;2024-02-23T07:07:44;6.50;99.90
7576;DHT22;3829;50.798;4.358;2024-02-23T07:10:10;6.40;99.90
7576;DHT22;3829;50.798;4.358;2024-02-23T07:12:37;6.50;99.90
7576;DHT22;3829;50.798;4.358;2024-02-23T07:15:03;6.50;99.90
7576;DHT22;3829;50.798;4.358;2024-02-23T07:17:29;6.50;99.90
7576;DHT22;3829;50.798;4.358;2024-02-23T07:19:54;6.40;99.90
7576;DHT22;3829;50.798;4.358;2024-02-23T07:22:28;6.40;99.90
7576;DHT22;3829;50.798;4.358;2024-02-23T07:24:53;6.50;99.90
7576;DHT22;3829;50.798;4.358;2024-02-23T07:27:19;6.50;99.90
7576;DHT22;3829;50.798;4.358;2024-02-23T07:29:44;6.50;99.90
7576;DHT22;3829;50.798;4.358;2024-02-23T07:32:11;6.60;99.90
7576;DHT22;3829;50.798;4.358;2024-02-23T07:34:36;6.50;99.90
7576;DHT22;3829;50.798;4.358;2024-02-23T07:37:02;6.60;99.90
7576;DHT22;3829;50.798;4.358;2024-02-23T07:39:28;6.70;99.90
7576;DHT22;3829;50.798;4.358;2024-02-23T07:41:53;6.70;99.90
7576;DHT22;3829;50.798;4.358;2024-02-23T07:44:19;6.90;99.90
7576;DHT22;3829;50.798;4.358;2024-02-23T07:46:45;6.90;99.90
7576;DHT22;3829;50.798;4.358;2024-02-23T07:49:10;7.00;99.90
7576;DHT22;3829;50.798;4.358;2024-02-23T07:51:36;7.10;99.90
7576;DHT22;3829;50.798;4.358;2024-02-23T07:54:01;7.30;99.90
7576;DHT22;3829;50.798;4.358;2024-02-23T07:56:27;7.30;99.90
7576;DHT22;3829;50.798;4.358;2024-02-23T07:58:54;7.30;99.90
7576;DHT22;3829;50.798;4.358;2024-02-23T08:01:20;7.10;99.90
7576;DHT22;3829;50.798;4.358;2024-02-23T08:03:46;7.10;99.90
7576;DHT22;3829;50.798;4.358;2024-02-23T08:06:12;7.00;99.90
7576;DHT22;3829;50.798;4.358;2024-02-23T08:08:38;6.80;99.90
7576;DHT22;3829;50.798;4.358;2024-02-23T08:11:04;6.70;99.90
7576;DHT22;3829;50.798;4.358;2024-02-23T08:13:30;6.40;99.90
7576;DHT22;3829;50.798;4.358;2024-02-23T08:15:57;6.40;99.90
7576;DHT22;3829;50.798;4.358;2024-02-23T08:18:23;6.30;99.90
7576;DHT22;3829;50.798;4.358;2024-02-23T08:20:48;6.20;99.90
7576;DHT22;3829;50.798;4.358;2024-02-23T08:23:14;6.20;99.90
7576;DHT22;3829;50.798;4.358;2024-02-23T08:25:40;6.10;99.90
7576;DHT22;3829;50.798;4.358;2024-02-23T08:28:06;6.00;99.90
7576;DHT22;3829;50.798;4.358;2024-02-23T08:30:33;5.90;99.90
7576;DHT22;3829;50.798;4.358;2024-02-23T08:32:58;5.80;99.90
7576;DHT22;3829;50.798;4.358;2024-02-23T08:35:25;5.80;99.90
7576;DHT22;3829;50.798;4.358;2024-02-23T08:37:51;5.80;99.90
7576;DHT22;3829;50.798;4.358;2024-02-23T08:40:16;5.90;99.90
7576;DHT22;3829;50.798;4.358;2024-02-23T08:42:42;6.00;99.90
7576;DHT22;3829;50.798;4.358;2024-02-23T08:45:08;6.10;99.90
7576;DHT22;3829;50.798;4.358;2024-02-23T08:47:35;6.10;99.90
7576;DHT22;3829;50.798;4.358;2024-02-23T08:50:02;6.10;99.90
7576;DHT22;3829;50.798;4.358;2024-02-23T08:52:28;6.00;99.90
7576;DHT22;3829;50.798;4.358;2024-02-23T08:54:54;6.00;99.90
7576;DHT22;3829;50.798;4.358;2024-02-23T08:57:19;6.00;99.90
7576;DHT22;3829;50.798;4.358;2024-02-23T08:59:46;5.90;99.90
7576;DHT22;3829;50.798;4.358;2024-02-23T09:02:12;5.90;99.90
7576;DHT22;3829;50.798;4.358;2024-02-23T09:04:38;5.90;99.90
7576;DHT22;3829;50.798;4.358;2024-02-23T09:07:03;6.10;99.90
7576;DHT22;3829;50.798;4.358;2024-02-23T09:09:29;6.10;99.90
7576;DHT22;3829;50.798;4.358;2024-02-23T09:11:55;6.10;99.90
7576;DHT22;3829;50.798;4.358;2024-02-23T09:14:21;6.10;99.90
7576;DHT22;3829;50.798;4.358;2024-02-23T09:16:46;6.10;99.90
7576;DHT22;3829;50.798;4.358;2024-02-23T09:19:16;6.10;99.90
7576;DHT22;3829;50.798;4.358;2024-02-23T09:21:42;6.10;99.90
7576;DHT22;3829;50.798;4.358;2024-02-23T09:24:07;6.10;99.90
7576;DHT22;3829;50.798;4.358;2024-02-23T09:26:33;6.20;99.90
7576;DHT22;3829;50.798;4.358;2024-02-23T09:28:59;6.40;99.90
7576;DHT22;3829;50.798;4.358;2024-02-23T09:31:24;6.50;99.90
7576;DHT22;3829;50.798;4.358;2024-02-23T09:33:51;6.60;99.90
7576;DHT22;3829;50.798;4.358;2024-02-23T09:36:17;6.60;99.90
7576;DHT22;3829;50.798;4.358;2024-02-23T09:38:43;6.70;99.90
7576;DHT22;3829;50.798;4.358;2024-02-23T09:41:18;7.00;99.90
7576;DHT22;3829;50.798;4.358;2024-02-23T09:43:44;7.10;99.90
7576;DHT22;3829;50.798;4.358;2024-02-23T09:46:11;7.40;99.90
7576;DHT22;3829;50.798;4.358;2024-02-23T09:48:38;7.50;99.90
7576;DHT22;3829;50.798;4.358;2024-02-23T09:51:05;7.60;99.90
7576;DHT22;3829;50.798;4.358;2024-02-23T09:53:33;7.60;99.90
7576;DHT22;3829;50.798;4.358;2024-02-23T09:55:59;7.60;99.90
7576;DHT22;3829;50.798;4.358;2024-02-23T09:58:26;7.40;99.90
7576;DHT22;3829;50.798;4.358;2024-02-23T10:00:56;7.30;99.90
7576;DHT22;3829;50.798;4.358;2024-02-23T10:03:24;7.10;99.90
7576;DHT22;3829;50.798;4.358;2024-02-23T10:05:51;7.10;99.90
7576;DHT22;3829;50.798;4.358;2024-02-23T10:08:17;7.10;99.90
7576;DHT22;3829;50.798;4.358;2024-02-23T10:10:46;7.10;99.90
7576;DHT22;3829;50.798;4.358;2024-02-23T10:13:11;7.20;99.90
7576;DHT22;3829;50.798;4.358;2024-02-23T10:15:37;7.40;99.90
7576;DHT22;3829;50.798;4.358;2024-02-23T10:18:04;7.60;99.90
7576;DHT22;3829;50.798;4.358;2024-02-23T10:20:30;7.70;99.90
7576;DHT22;3829;50.798;4.358;2024-02-23T10:22:56;8.00;99.90
7576;DHT22;3829;50.798;4.358;2024-02-23T10:25:22;8.00;99.90
7576;DHT22;3829;50.798;4.358;2024-02-23T10:27:48;7.90;99.90
7576;DHT22;3829;50.798;4.358;2024-02-23T10:30:14;7.70;99.90
7576;DHT22;3829;50.798;4.358;2024-02-23T10:32:41;7.60;99.90
7576;DHT22;3829;50.798;4.358;2024-02-23T10:35:14;7.80;99.90
7576;DHT22;3829;50.798;4.358;2024-02-23T10:37:43;7.90;99.90
7576;DHT22;3829;50.798;4.358;2024-02-23T10:40:12;7.90;99.90
7576;DHT22;3829;50.798;4.358;2024-02-23T10:42:39;8.00;99.90
7576;DHT22;3829;50.798;4.358;2024-02-23T10:45:07;8.20;99.90
7576;DHT22;3829;50.798;4.358;2024-02-23T10:47:34;8.00;99.90
7576;DHT22;3829;50.798;4.358;2024-02-23T10:50:01;8.00;99.90
7576;DHT22;3829;50.798;4.358;2024-02-23T10:52:28;8.20;99.90
7576;DHT22;3829;50.798;4.358;2024-02-23T10:54:54;8.30;99.90
7576;DHT22;3829;50.798;4.358;2024-02-23T10:57:21;8.50;99.90
7576;DHT22;3829;50.798;4.358;2024-02-23T10:59:47;8.50;99.90
7576;DHT22;3829;50.798;4.358;2024-02-23T11:02:16;8.40;99.90
7576;DHT22;3829;50.798;4.358;2024-02-23T11:04:46;8.50;99.90
7576;DHT22;3829;50.798;4.358;2024-02-23T11:07:17;8.70;99.90
7576;DHT22;3829;50.798;4.358;2024-02-23T11:09:51;8.90;99.90
7576;DHT22;3829;50.798;4.358;2024-02-23T11:12:26;8.80;99.90
7576;DHT22;3829;50.798;4.358;2024-02-23T11:14:56;8.80;99.90
7576;DHT22;3829;50.798;4.358;2024-02-23T11:17:23;8.90;99.90
7576;DHT22;3829;50.798;4.358;2024-02-23T11:19:51;8.80;99.90
7576;DHT22;3829;50.798;4.358;2024-02-23T11:22:30;8.80;99.90
7576;DHT22;3829;50.798;4.358;2024-02-23T11:25:00;8.80;99.90
7576;DHT22;3829;50.798;4.358;2024-02-23T11:27:31;8.90;99.90
7576;DHT22;3829;50.798;4.358;2024-02-23T11:30:08;8.90;99.90
7576;DHT22;3829;50.798;4.358;2024-02-23T11:32:39;8.90;99.90
7576;DHT22;3829;50.798;4.358;2024-02-23T11:35:07;8.90;99.90
7576;DHT22;3829;50.798;4.358;2024-02-23T11:37:45;9.20;99.90
7576;DHT22;3829;50.798;4.358;2024-02-23T11:40:12;9.30;99.90
7576;DHT22;3829;50.798;4.358;2024-02-23T11:42:42;9.50;99.90
7576;DHT22;3829;50.798;4.358;2024-02-23T11:45:09;9.50;99.90
7576;DHT22;3829;50.798;4.358;2024-02-23T11:47:36;9.40;99.90
7576;DHT22;3829;50.798;4.358;2024-02-23T11:50:02;9.20;99.90
7576;DHT22;3829;50.798;4.358;2024-02-23T11:52:28;9.00;99.90
7576;DHT22;3829;50.798;4.358;2024-02-23T11:54:53;8.80;99.90
7576;DHT22;3829;50.798;4.358;2024-02-23T11:57:21;8.90;99.90
7576;DHT22;3829;50.798;4.358;2024-02-23T11:59:46;9.10;99.90
7576;DHT22;3829;50.798;4.358;2024-02-23T12:02:12;9.30;99.90
7576;DHT22;3829;50.798;4.358;2024-02-23T12:04:38;9.30;99.90
7576;DHT22;3829;50.798;4.358;2024-02-23T12:07:06;9.50;99.90
7576;DHT22;3829;50.798;4.358;2024-02-23T12:09:33;9.50;99.90
7576;DHT22;3829;50.798;4.358;2024-02-23T12:11:59;9.40;99.90
7576;DHT22;3829;50.798;4.358;2024-02-23T12:14:25;9.40;99.90
7576;DHT22;3829;50.798;4.358;2024-02-23T12:16:52;9.40;99.90
7576;DHT22;3829;50.798;4.358;2024-02-23T12:19:17;9.50;99.90
7576;DHT22;3829;50.798;4.358;2024-02-23T12:21:45;9.60;99.90
7576;DHT22;3829;50.798;4.358;2024-02-23T12:24:12;9.80;99.90
7576;DHT22;3829;50.798;4.358;2024-02-23T12:26:38;9.90;99.90
7576;DHT22;3829;50.798;4.358;2024-02-23T12:29:04;10.00;99.90
7576;DHT22;3829;50.798;4.358;2024-02-23T12:31:32;9.90;99.90
7576;DHT22;3829;50.798;4.358;2024-02-23T12:33:57;9.70;99.90
7576;DHT22;3829;50.798;4.358;2024-02-23T12:36:23;9.80;99.90
7576;DHT22;3829;50.798;4.358;2024-02-23T12:38:49;9.60;99.90
7576;DHT22;3829;50.798;4.358;2024-02-23T12:41:15;9.50;99.90
7576;DHT22;3829;50.798;4.358;2024-02-23T12:43:40;9.50;99.90
7576;DHT22;3829;50.798;4.358;2024-02-23T12:46:06;9.30;99.90
7576;DHT22;3829;50.798;4.358;2024-02-23T12:48:34;9.30;99.90
7576;DHT22;3829;50.798;4.358;2024-02-23T12:51:00;9.50;99.90
7576;DHT22;3829;50.798;4.358;2024-02-23T12:53:35;9.60;99.90
7576;DHT22;3829;50.798;4.358;2024-02-23T12:56:03;9.80;99.90
7576;DHT22;3829;50.798;4.358;2024-02-23T12:58:29;10.00;99.90
7576;DHT22;3829;50.798;4.358;2024-02-23T13:00:55;10.00;99.90
7576;DHT22;3829;50.798;4.358;2024-02-23T13:03:21;10.20;99.90
7576;DHT22;3829;50.798;4.358;2024-02-23T13:05:47;10.10;99.90
7576;DHT22;3829;50.798;4.358;2024-02-23T13:08:13;10.00;99.90
7576;DHT22;3829;50.798;4.358;2024-02-23T13:10:38;10.00;99.90
7576;DHT22;3829;50.798;4.358;2024-02-23T13:13:04;9.80;99.90
7576;DHT22;3829;50.798;4.358;2024-02-23T13:15:29;9.80;99.90
7576;DHT22;3829;50.798;4.358;2024-02-23T13:17:55;10.00;99.90
7576;DHT22;3829;50.798;4.358;2024-02-23T13:20:22;10.20;99.90
7576;DHT22;3829;50.798;4.358;2024-02-23T13:22:48;10.40;99.90
7576;DHT22;3829;50.798;4.358;2024-02-23T13:25:15;10.40;99.90
7576;DHT22;3829;50.798;4.358;2024-02-23T13:27:40;10.20;99.90
7576;DHT22;3829;50.798;4.358;2024-02-23T13:30:06;10.10;99.90
7576;DHT22;3829;50.798;4.358;2024-02-23T13:32:32;9.80;99.90
7576;DHT22;3829;50.798;4.358;2024-02-23T13:34:58;9.90;99.90
7576;DHT22;3829;50.798;4.358;2024-02-23T13:37:24;9.70;99.90
7576;DHT22;3829;50.798;4.358;2024-02-23T13:39:49;9.90;99.90
7576;DHT22;3829;50.798;4.358;2024-02-23T13:42:15;9.90;99.90
7576;DHT22;3829;50.798;4.358;2024-02-23T13:44:40;10.00;99.90
7576;DHT22;3829;50.798;4.358;2024-02-23T13:47:06;10.20;99.90
7576;DHT22;3829;50.798;4.358;2024-02-23T13:49:32;10.20;99.90
7576;DHT22;3829;50.798;4.358;2024-02-23T13:51:58;10.30;99.90
7576;DHT22;3829;50.798;4.358;2024-02-23T13:54:23;10.60;99.90
7576;DHT22;3829;50.798;4.358;2024-02-23T13:56:49;10.50;99.90
7576;DHT22;3829;50.798;4.358;2024-02-23T13:59:15;10.30;99.90
7576;DHT22;3829;50.798;4.358;2024-02-23T14:01:41;9.90;99.90
7576;DHT22;3829;50.798;4.358;2024-02-23T14:04:07;9.70;99.90
7576;DHT22;3829;50.798;4.358;2024-02-23T14:06:34;9.90;99.90
7576;DHT22;3829;50.798;4.358;2024-02-23T14:08:59;10.10;99.90
7576;DHT22;3829;50.798;4.358;2024-02-23T14:11:25;10.00;99.90
7576;DHT22;3829;50.798;4.358;2024-02-23T14:13:51;10.00;99.90
7576;DHT22;3829;50.798;4.358;2024-02-23T14:16:17;10.10;99.90
7576;DHT22;3829;50.798;4.358;2024-02-23T14:18:42;10.30;99.90
7576;DHT22;3829;50.798;4.358;2024-02-23T14:21:10;10.70;99.90
7576;DHT22;3829;50.798;4.358;2024-02-23T14:23:36;10.60;99.90
7576;DHT22;3829;50.798;4.358;2024-02-23T14:26:03;10.30;99.90
7576;DHT22;3829;50.798;4.358;2024-02-23T14:28:29;10.30;99.90
7576;DHT22;3829;50.798;4.358;2024-02-23T14:30:54;10.30;99.90
7576;DHT22;3829;50.798;4.358;2024-02-23T14:33:20;10.30;99.90
7576;DHT22;3829;50.798;4.358;2024-02-23T14:35:46;10.10;99.90
7576;DHT22;3829;50.798;4.358;2024-02-23T14:38:12;10.00;99.90
7576;DHT22;3829;50.798;4.358;2024-02-23T14:40:38;10.00;99.90
7576;DHT22;3829;50.798;4.358;2024-02-23T14:43:05;10.30;99.90
7576;DHT22;3829;50.798;4.358;2024-02-23T14:45:30;10.50;99.90
7576;DHT22;3829;50.798;4.358;2024-02-23T14:47:56;10.70;99.90
7576;DHT22;3829;50.798;4.358;2024-02-23T14:50:23;11.00;99.90
7576;DHT22;3829;50.798;4.358;2024-02-23T14:52:49;11.00;99.90
7576;DHT22;3829;50.798;4.358;2024-02-23T14:55:15;10.90;99.90
7576;DHT22;3829;50.798;4.358;2024-02-23T14:57:41;10.90;99.90
7576;DHT22;3829;50.798;4.358;2024-02-23T15:00:07;10.80;99.90
7576;DHT22;3829;50.798;4.358;2024-02-23T15:02:33;10.60;99.90
7576;DHT22;3829;50.798;4.358;2024-02-23T15:04:59;10.30;99.90
7576;DHT22;3829;50.798;4.358;2024-02-23T15:07:24;10.30;99.90
7576;DHT22;3829;50.798;4.358;2024-02-23T15:09:50;10.20;99.90
7576;DHT22;3829;50.798;4.358;2024-02-23T15:12:16;10.20;99.90
7576;DHT22;3829;50.798;4.358;2024-02-23T15:14:41;10.30;99.90
7576;DHT22;3829;50.798;4.358;2024-02-23T15:17:07;10.30;99.90
7576;DHT22;3829;50.798;4.358;2024-02-23T15:19:33;10.20;99.90
7576;DHT22;3829;50.798;4.358;2024-02-23T15:21:59;10.10;99.90
7576;DHT22;3829;50.798;4.358;2024-02-23T15:24:25;10.10;99.90
7576;DHT22;3829;50.798;4.358;2024-02-23T15:26:50;10.10;99.90
7576;DHT22;3829;50.798;4.358;2024-02-23T15:29:17;10.10;99.90
7576;DHT22;3829;50.798;4.358;2024-02-23T15:31:43;10.10;99.90
7576;DHT22;3829;50.798;4.358;2024-02-23T15:34:09;10.00;99.90
7576;DHT22;3829;50.798;4.358;2024-02-23T15:36:35;9.90;99.90
7576;DHT22;3829;50.798;4.358;2024-02-23T15:39:01;10.00;99.90
7576;DHT22;3829;50.798;4.358;2024-02-23T15:41:29;10.10;99.90
7576;DHT22;3829;50.798;4.358;2024-02-23T15:43:55;10.10;99.90
7576;DHT22;3829;50.798;4.358;2024-02-23T15:46:21;10.00;99.90
7576;DHT22;3829;50.798;4.358;2024-02-23T15:48:46;10.10;99.90
7576;DHT22;3829;50.798;4.358;2024-02-23T15:51:12;10.00;99.90
7576;DHT22;3829;50.798;4.358;2024-02-23T15:53:38;10.20;99.90
7576;DHT22;3829;50.798;4.358;2024-02-23T15:56:04;10.20;99.90
7576;DHT22;3829;50.798;4.358;2024-02-23T15:58:29;10.30;99.90
7576;DHT22;3829;50.798;4.358;2024-02-23T16:00:55;10.10;99.90
7576;DHT22;3829;50.798;4.358;2024-02-23T16:03:21;10.00;99.90
7576;DHT22;3829;50.798;4.358;2024-02-23T16:05:48;10.00;99.90
7576;DHT22;3829;50.798;4.358;2024-02-23T16:08:13;10.10;99.90